sensor_id;sensor_type;location;lat;lon;timestamp;temperature;humidity
3356;DHT22;1691;52.486;13.374;2023-02-28T00:01:29;3.50;83.00
3356;DHT22;1691;52.486;13.374;2023-02-28T00:03:56;3.50;83.00
3356;DHT22;1691;52.486;13.374;2023-02-28T00:06:25;3.50;83.20
3356;DHT22;1691;52.486;13.374;2023-02-28T00:08:52;3.50;83.00
3356;DHT22;1691;52.486;13.374;2023-02-28T00:11:19;3.50;83.00
3356;DHT22;1691;52.486;13.374;2023-02-28T00:13:47;3.50;83.00
3356;DHT22;1691;52.486;13.374;2023-02-28T00:16:18;3.50;83.20
3356;DHT22;1691;52.486;13.374;2023-02-28T00:18:47;3.50;83.20
3356;DHT22;1691;52.486;13.374;2023-02-28T00:21:17;3.50;83.20
3356;DHT22;1691;52.486;13.374;2023-02-28T00:23:44;3.50;83.20
3356;DHT22;1691;52.486;13.374;2023-02-28T00:26:11;3.50;83.20
3356;DHT22;1691;52.486;13.374;2023-02-28T00:28:38;3.50;83.20
3356;DHT22;1691;52.486;13.374;2023-02-28T00:31:05;3.50;83.20
3356;DHT22;1691;52.486;13.374;2023-02-28T00:33:32;3.50;83.20
3356;DHT22;1691;52.486;13.374;2023-02-28T00:36:05;3.40;83.40
3356;DHT22;1691;52.486;13.374;2023-02-28T00:38:33;3.40;83.20
3356;DHT22;1691;52.486;13.374;2023-02-28T00:41:01;3.40;83.40
3356;DHT22;1691;52.486;13.374;2023-02-28T00:43:33;3.30;83.40
3356;DHT22;1691;52.486;13.374;2023-02-28T00:46:01;3.30;83.60
3356;DHT22;1691;52.486;13.374;2023-02-28T00:48:28;3.20;83.80
3356;DHT22;1691;52.486;13.374;2023-02-28T00:50:55;3.20;84.10
3356;DHT22;1691;52.486;13.374;2023-02-28T00:53:22;3.20;84.10
3356;DHT22;1691;52.486;13.374;2023-02-28T00:55:50;3.20;84.30
3356;DHT22;1691;52.486;13.374;2023-02-28T00:58:17;3.20;84.30
3356;DHT22;1691;52.486;13.374;2023-02-28T01:00:44;3.20;84.30
3356;DHT22;1691;52.486;13.374;2023-02-28T01:03:19;3.20;84.30
3356;DHT22;1691;52.486;13.374;2023-02-28T01:05:47;3.20;84.30
3356;DHT22;1691;52.486;13.374;2023-02-28T01:08:14;3.20;84.50
3356;DHT22;1691;52.486;13.374;2023-02-28T01:10:41;3.20;84.50
3356;DHT22;1691;52.486;13.374;2023-02-28T01:13:09;3.20;84.70
3356;DHT22;1691;52.486;13.374;2023-02-28T01:15:36;3.20;84.70
3356;DHT22;1691;52.486;13.374;2023-02-28T01:18:03;3.10;84.70
3356;DHT22;1691;52.486;13.374;2023-02-28T01:20:30;3.10;84.70
3356;DHT22;1691;52.486;13.374;2023-02-28T01:22:57;3.10;84.90
3356;DHT22;1691;52.486;13.374;2023-02-28T01:25:24;3.00;84.90
3356;DHT22;1691;52.486;13.374;2023-02-28T01:27:51;3.00;84.90
3356;DHT22;1691;52.486;13.374;2023-02-28T01:30:18;3.00;85.10
3356;DHT22;1691;52.486;13.374;2023-02-28T01:32:45;2.90;85.10
3356;DHT22;1691;52.486;13.374;2023-02-28T01:35:12;2.90;85.20
3356;DHT22;1691;52.486;13.374;2023-02-28T01:37:39;2.90;85.20
3356;DHT22;1691;52.486;13.374;2023-02-28T01:40:06;2.90;85.20
3356;DHT22;1691;52.486;13.374;2023-02-28T01:42:34;2.80;85.20
3356;DHT22;1691;52.486;13.374;2023-02-28T01:47:48;2.70;85.60
3356;DHT22;1691;52.486;13.374;2023-02-28T01:50:23;2.60;85.60
3356;DHT22;1691;52.486;13.374;2023-02-28T01:52:56;2.60;85.80
3356;DHT22;1691;52.486;13.374;2023-02-28T01:55:25;2.50;85.80
3356;DHT22;1691;52.486;13.374;2023-02-28T01:57:57;2.40;85.80
3356;DHT22;1691;52.486;13.374;2023-02-28T02:00:26;2.30;86.00
3356;DHT22;1691;52.486;13.374;2023-02-28T02:02:58;2.30;86.40
3356;DHT22;1691;52.486;13.374;2023-02-28T02:05:29;2.20;86.50
3356;DHT22;1691;52.486;13.374;2023-02-28T02:08:02;2.10;86.50
3356;DHT22;1691;52.486;13.374;2023-02-28T02:10:41;2.00;86.90
3356;DHT22;1691;52.486;13.374;2023-02-28T02:18:53;1.80;87.30
3356;DHT22;1691;52.486;13.374;2023-02-28T02:33:10;1.60;87.90
3356;DHT22;1691;52.486;13.374;2023-02-28T02:36:13;1.60;88.00
3356;DHT22;1691;52.486;13.374;2023-02-28T02:39:16;1.50;88.20
3356;DHT22;1691;52.486;13.374;2023-02-28T02:41:57;1.50;88.40
3356;DHT22;1691;52.486;13.374;2023-02-28T02:45:00;1.40;88.60
3356;DHT22;1691;52.486;13.374;2023-02-28T02:47:33;1.40;88.80
3356;DHT22;1691;52.486;13.374;2023-02-28T02:50:04;1.30;89.00
3356;DHT22;1691;52.486;13.374;2023-02-28T02:52:40;1.30;89.20
3356;DHT22;1691;52.486;13.374;2023-02-28T02:55:14;1.30;89.20
3356;DHT22;1691;52.486;13.374;2023-02-28T02:57:57;1.30;89.20
3356;DHT22;1691;52.486;13.374;2023-02-28T03:00:33;1.30;89.30
3356;DHT22;1691;52.486;13.374;2023-02-28T03:03:07;1.20;89.50
3356;DHT22;1691;52.486;13.374;2023-02-28T03:05:43;1.30;89.70
3356;DHT22;1691;52.486;13.374;2023-02-28T03:08:13;1.20;89.90
3356;DHT22;1691;52.486;13.374;2023-02-28T03:10:46;1.20;89.90
3356;DHT22;1691;52.486;13.374;2023-02-28T03:30:42;1.20;90.50
3356;DHT22;1691;52.486;13.374;2023-02-28T03:33:38;1.20;90.50
3356;DHT22;1691;52.486;13.374;2023-02-28T03:36:13;1.20;90.50
3356;DHT22;1691;52.486;13.374;2023-02-28T03:38:47;1.20;90.60
3356;DHT22;1691;52.486;13.374;2023-02-28T03:41:21;1.20;90.70
3356;DHT22;1691;52.486;13.374;2023-02-28T03:44:14;1.20;90.70
3356;DHT22;1691;52.486;13.374;2023-02-28T03:46:52;1.20;90.70
3356;DHT22;1691;52.486;13.374;2023-02-28T03:49:24;1.20;90.80
3356;DHT22;1691;52.486;13.374;2023-02-28T03:52:02;1.20;90.80
3356;DHT22;1691;52.486;13.374;2023-02-28T03:54:40;1.10;90.80
3356;DHT22;1691;52.486;13.374;2023-02-28T03:57:22;1.10;90.90
3356;DHT22;1691;52.486;13.374;2023-02-28T03:59:59;1.10;91.00
3356;DHT22;1691;52.486;13.374;2023-02-28T04:02:32;1.10;91.00
3356;DHT22;1691;52.486;13.374;2023-02-28T04:05:00;1.10;91.00
3356;DHT22;1691;52.486;13.374;2023-02-28T04:07:30;1.10;91.10
3356;DHT22;1691;52.486;13.374;2023-02-28T04:09:58;1.10;91.20
3356;DHT22;1691;52.486;13.374;2023-02-28T04:12:25;1.10;91.20
3356;DHT22;1691;52.486;13.374;2023-02-28T04:14:53;1.10;91.20
3356;DHT22;1691;52.486;13.374;2023-02-28T04:17:20;1.10;91.30
3356;DHT22;1691;52.486;13.374;2023-02-28T04:19:47;1.00;91.30
3356;DHT22;1691;52.486;13.374;2023-02-28T04:22:14;1.00;91.40
3356;DHT22;1691;52.486;13.374;2023-02-28T04:24:43;1.00;91.40
3356;DHT22;1691;52.486;13.374;2023-02-28T04:27:11;1.00;91.40
3356;DHT22;1691;52.486;13.374;2023-02-28T04:29:38;1.00;91.50
3356;DHT22;1691;52.486;13.374;2023-02-28T04:32:05;1.00;91.50
3356;DHT22;1691;52.486;13.374;2023-02-28T04:34:32;1.00;91.40
3356;DHT22;1691;52.486;13.374;2023-02-28T04:36:59;1.00;91.40
3356;DHT22;1691;52.486;13.374;2023-02-28T04:39:39;0.90;91.50
3356;DHT22;1691;52.486;13.374;2023-02-28T04:42:07;0.90;91.60
3356;DHT22;1691;52.486;13.374;2023-02-28T04:44:34;0.90;91.70
3356;DHT22;1691;52.486;13.374;2023-02-28T04:47:01;0.80;91.70
3356;DHT22;1691;52.486;13.374;2023-02-28T04:49:27;0.80;91.80
3356;DHT22;1691;52.486;13.374;2023-02-28T04:51:54;0.80;91.90
3356;DHT22;1691;52.486;13.374;2023-02-28T04:54:22;0.80;92.00
3356;DHT22;1691;52.486;13.374;2023-02-28T04:56:49;0.80;92.10
3356;DHT22;1691;52.486;13.374;2023-02-28T04:59:16;0.80;92.10
3356;DHT22;1691;52.486;13.374;2023-02-28T05:01:48;0.80;92.10
3356;DHT22;1691;52.486;13.374;2023-02-28T05:04:15;0.70;92.20
3356;DHT22;1691;52.486;13.374;2023-02-28T05:06:43;0.70;92.20
3356;DHT22;1691;52.486;13.374;2023-02-28T05:09:10;0.70;92.30
3356;DHT22;1691;52.486;13.374;2023-02-28T05:11:40;0.70;92.30
3356;DHT22;1691;52.486;13.374;2023-02-28T05:14:12;0.70;92.40
3356;DHT22;1691;52.486;13.374;2023-02-28T05:16:40;0.70;92.50
3356;DHT22;1691;52.486;13.374;2023-02-28T05:19:07;0.70;92.50
3356;DHT22;1691;52.486;13.374;2023-02-28T05:21:36;0.70;92.50
3356;DHT22;1691;52.486;13.374;2023-02-28T05:24:07;0.60;92.60
3356;DHT22;1691;52.486;13.374;2023-02-28T05:26:41;0.60;92.60
3356;DHT22;1691;52.486;13.374;2023-02-28T05:29:09;0.60;92.70
3356;DHT22;1691;52.486;13.374;2023-02-28T05:31:36;0.70;92.70
3356;DHT22;1691;52.486;13.374;2023-02-28T05:34:04;0.70;92.70
3356;DHT22;1691;52.486;13.374;2023-02-28T05:36:31;0.60;92.70
3356;DHT22;1691;52.486;13.374;2023-02-28T05:38:59;0.60;92.70
3356;DHT22;1691;52.486;13.374;2023-02-28T05:41:26;0.60;92.80
3356;DHT22;1691;52.486;13.374;2023-02-28T05:43:54;0.60;92.80
3356;DHT22;1691;52.486;13.374;2023-02-28T05:46:21;0.60;92.80
3356;DHT22;1691;52.486;13.374;2023-02-28T05:48:48;0.60;92.80
3356;DHT22;1691;52.486;13.374;2023-02-28T05:51:16;0.50;92.80
3356;DHT22;1691;52.486;13.374;2023-02-28T05:53:43;0.50;92.80
3356;DHT22;1691;52.486;13.374;2023-02-28T05:56:10;0.50;92.90
3356;DHT22;1691;52.486;13.374;2023-02-28T05:58:37;0.50;92.90
3356;DHT22;1691;52.486;13.374;2023-02-28T06:01:38;0.40;93.00
3356;DHT22;1691;52.486;13.374;2023-02-28T06:04:16;0.50;93.00
3356;DHT22;1691;52.486;13.374;2023-02-28T06:06:57;0.50;93.00
3356;DHT22;1691;52.486;13.374;2023-02-28T06:09:24;0.50;93.10
3356;DHT22;1691;52.486;13.374;2023-02-28T06:11:51;0.60;93.10
3356;DHT22;1691;52.486;13.374;2023-02-28T06:14:19;0.60;93.10
3356;DHT22;1691;52.486;13.374;2023-02-28T06:16:47;0.60;93.10
3356;DHT22;1691;52.486;13.374;2023-02-28T06:19:14;0.70;93.10
3356;DHT22;1691;52.486;13.374;2023-02-28T06:21:42;0.70;93.10
3356;DHT22;1691;52.486;13.374;2023-02-28T06:24:10;0.80;93.10
3356;DHT22;1691;52.486;13.374;2023-02-28T06:26:37;0.80;93.10
3356;DHT22;1691;52.486;13.374;2023-02-28T06:29:04;0.90;93.10
3356;DHT22;1691;52.486;13.374;2023-02-28T06:31:31;1.00;93.10
3356;DHT22;1691;52.486;13.374;2023-02-28T06:33:58;1.30;93.50
3356;DHT22;1691;52.486;13.374;2023-02-28T06:36:25;2.00;93.80
3356;DHT22;1691;52.486;13.374;2023-02-28T06:38:52;2.80;93.90
3356;DHT22;1691;52.486;13.374;2023-02-28T06:41:25;3.80;93.60
3356;DHT22;1691;52.486;13.374;2023-02-28T06:43:54;4.80;93.00
3356;DHT22;1691;52.486;13.374;2023-02-28T06:46:21;5.80;92.10
3356;DHT22;1691;52.486;13.374;2023-02-28T06:48:49;6.70;91.20
3356;DHT22;1691;52.486;13.374;2023-02-28T06:51:18;7.50;90.20
3356;DHT22;1691;52.486;13.374;2023-02-28T06:53:51;8.30;88.40
3356;DHT22;1691;52.486;13.374;2023-02-28T06:56:18;9.00;86.40
3356;DHT22;1691;52.486;13.374;2023-02-28T06:58:48;9.60;84.50
3356;DHT22;1691;52.486;13.374;2023-02-28T07:01:17;10.20;82.30
3356;DHT22;1691;52.486;13.374;2023-02-28T07:03:46;10.80;79.80
3356;DHT22;1691;52.486;13.374;2023-02-28T07:06:13;11.30;77.80
3356;DHT22;1691;52.486;13.374;2023-02-28T07:08:40;11.80;75.60
3356;DHT22;1691;52.486;13.374;2023-02-28T07:11:07;12.10;73.50
3356;DHT22;1691;52.486;13.374;2023-02-28T07:13:35;12.30;71.80
3356;DHT22;1691;52.486;13.374;2023-02-28T07:16:06;12.70;70.00
3356;DHT22;1691;52.486;13.374;2023-02-28T07:18:36;13.00;67.90
3356;DHT22;1691;52.486;13.374;2023-02-28T07:21:06;13.20;66.40
3356;DHT22;1691;52.486;13.374;2023-02-28T07:23:35;13.50;64.90
3356;DHT22;1691;52.486;13.374;2023-02-28T07:26:06;14.00;63.30
3356;DHT22;1691;52.486;13.374;2023-02-28T07:28:33;14.40;61.00
3356;DHT22;1691;52.486;13.374;2023-02-28T07:31:05;14.90;59.50
3356;DHT22;1691;52.486;13.374;2023-02-28T07:33:33;15.40;57.60
3356;DHT22;1691;52.486;13.374;2023-02-28T07:36:06;15.90;56.10
3356;DHT22;1691;52.486;13.374;2023-02-28T07:38:36;16.30;54.10
3356;DHT22;1691;52.486;13.374;2023-02-28T07:41:04;16.80;52.70
3356;DHT22;1691;52.486;13.374;2023-02-28T07:43:32;17.10;51.20
3356;DHT22;1691;52.486;13.374;2023-02-28T07:46:08;17.50;49.80
3356;DHT22;1691;52.486;13.374;2023-02-28T07:48:36;17.90;47.80
3356;DHT22;1691;52.486;13.374;2023-02-28T07:51:04;18.10;46.90
3356;DHT22;1691;52.486;13.374;2023-02-28T07:53:31;18.30;45.20
3356;DHT22;1691;52.486;13.374;2023-02-28T07:55:59;18.30;44.20
3356;DHT22;1691;52.486;13.374;2023-02-28T07:58:28;18.30;43.30
3356;DHT22;1691;52.486;13.374;2023-02-28T08:00:56;18.30;42.20
3356;DHT22;1691;52.486;13.374;2023-02-28T08:03:24;18.50;41.20
3356;DHT22;1691;52.486;13.374;2023-02-28T08:05:51;18.70;40.20
3356;DHT22;1691;52.486;13.374;2023-02-28T08:08:21;18.80;39.30
3356;DHT22;1691;52.486;13.374;2023-02-28T08:10:48;18.80;38.50
3356;DHT22;1691;52.486;13.374;2023-02-28T08:13:14;18.90;38.20
3356;DHT22;1691;52.486;13.374;2023-02-28T08:15:42;19.10;37.60
3356;DHT22;1691;52.486;13.374;2023-02-28T08:18:09;19.30;36.90
3356;DHT22;1691;52.486;13.374;2023-02-28T08:20:36;19.50;36.10
3356;DHT22;1691;52.486;13.374;2023-02-28T08:23:03;19.30;35.20
3356;DHT22;1691;52.486;13.374;2023-02-28T08:25:30;19.10;35.00
3356;DHT22;1691;52.486;13.374;2023-02-28T08:27:57;19.10;34.70
3356;DHT22;1691;52.486;13.374;2023-02-28T08:30:24;19.00;34.40
3356;DHT22;1691;52.486;13.374;2023-02-28T08:32:51;18.80;33.60
3356;DHT22;1691;52.486;13.374;2023-02-28T08:35:18;18.60;33.60
3356;DHT22;1691;52.486;13.374;2023-02-28T08:37:47;18.60;33.80
3356;DHT22;1691;52.486;13.374;2023-02-28T08:40:16;18.70;33.50
3356;DHT22;1691;52.486;13.374;2023-02-28T08:42:45;18.90;33.30
3356;DHT22;1691;52.486;13.374;2023-02-28T08:45:13;19.00;32.70
3356;DHT22;1691;52.486;13.374;2023-02-28T08:47:41;18.90;31.80
3356;DHT22;1691;52.486;13.374;2023-02-28T08:50:08;18.70;31.90
3356;DHT22;1691;52.486;13.374;2023-02-28T08:52:35;18.60;31.60
3356;DHT22;1691;52.486;13.374;2023-02-28T08:55:02;18.50;31.20
3356;DHT22;1691;52.486;13.374;2023-02-28T08:57:29;18.50;31.20
3356;DHT22;1691;52.486;13.374;2023-02-28T08:59:56;18.50;31.00
3356;DHT22;1691;52.486;13.374;2023-02-28T09:02:23;18.50;30.50
3356;DHT22;1691;52.486;13.374;2023-02-28T09:04:50;18.60;30.70
3356;DHT22;1691;52.486;13.374;2023-02-28T09:07:17;18.70;30.20
3356;DHT22;1691;52.486;13.374;2023-02-28T09:09:44;18.80;30.10
3356;DHT22;1691;52.486;13.374;2023-02-28T09:12:25;18.90;29.80
3356;DHT22;1691;52.486;13.374;2023-02-28T09:14:53;18.80;29.60
3356;DHT22;1691;52.486;13.374;2023-02-28T09:17:20;18.60;29.30
3356;DHT22;1691;52.486;13.374;2023-02-28T09:19:49;18.50;29.40
3356;DHT22;1691;52.486;13.374;2023-02-28T09:22:16;18.50;29.20
3356;DHT22;1691;52.486;13.374;2023-02-28T09:24:43;18.60;29.30
3356;DHT22;1691;52.486;13.374;2023-02-28T09:27:11;18.70;29.30
3356;DHT22;1691;52.486;13.374;2023-02-28T09:29:38;18.90;29.20
3356;DHT22;1691;52.486;13.374;2023-02-28T09:32:05;19.00;29.00
3356;DHT22;1691;52.486;13.374;2023-02-28T09:34:34;19.10;28.90
3356;DHT22;1691;52.486;13.374;2023-02-28T09:37:03;19.10;28.70
3356;DHT22;1691;52.486;13.374;2023-02-28T09:39:30;19.00;28.60
3356;DHT22;1691;52.486;13.374;2023-02-28T09:41:58;18.90;28.50
3356;DHT22;1691;52.486;13.374;2023-02-28T09:44:43;18.70;28.50
3356;DHT22;1691;52.486;13.374;2023-02-28T09:47:34;18.50;28.10
3356;DHT22;1691;52.486;13.374;2023-02-28T09:50:33;18.50;28.60
3356;DHT22;1691;52.486;13.374;2023-02-28T09:53:03;18.30;28.80
3356;DHT22;1691;52.486;13.374;2023-02-28T09:55:42;18.20;28.90
3356;DHT22;1691;52.486;13.374;2023-02-28T09:58:40;17.80;28.90
3356;DHT22;1691;52.486;13.374;2023-02-28T10:07:57;16.90;29.80
3356;DHT22;1691;52.486;13.374;2023-02-28T10:10:47;17.10;29.40
3356;DHT22;1691;52.486;13.374;2023-02-28T10:13:34;17.20;30.20
3356;DHT22;1691;52.486;13.374;2023-02-28T10:16:35;17.00;29.70
3356;DHT22;1691;52.486;13.374;2023-02-28T10:19:31;16.70;29.20
3356;DHT22;1691;52.486;13.374;2023-02-28T10:22:15;16.20;29.20
3356;DHT22;1691;52.486;13.374;2023-02-28T10:24:46;15.60;29.50
3356;DHT22;1691;52.486;13.374;2023-02-28T10:27:25;15.30;30.20
3356;DHT22;1691;52.486;13.374;2023-02-28T10:29:58;15.40;30.40
3356;DHT22;1691;52.486;13.374;2023-02-28T10:32:30;15.30;29.90
3356;DHT22;1691;52.486;13.374;2023-02-28T10:35:23;14.80;30.20
3356;DHT22;1691;52.486;13.374;2023-02-28T10:37:57;14.30;30.40
3356;DHT22;1691;52.486;13.374;2023-02-28T10:40:28;13.90;30.50
3356;DHT22;1691;52.486;13.374;2023-02-28T10:43:04;13.20;31.20
3356;DHT22;1691;52.486;13.374;2023-02-28T10:45:34;12.80;31.90
3356;DHT22;1691;52.486;13.374;2023-02-28T10:50:43;12.00;32.90
3356;DHT22;1691;52.486;13.374;2023-02-28T10:56:26;11.50;33.20
3356;DHT22;1691;52.486;13.374;2023-02-28T10:58:59;11.30;33.60
3356;DHT22;1691;52.486;13.374;2023-02-28T11:01:46;11.20;33.80
3356;DHT22;1691;52.486;13.374;2023-02-28T11:07:33;10.60;34.70
3356;DHT22;1691;52.486;13.374;2023-02-28T11:10:12;10.60;35.30
3356;DHT22;1691;52.486;13.374;2023-02-28T11:12:45;10.70;35.50
3356;DHT22;1691;52.486;13.374;2023-02-28T11:17:59;10.80;35.80
3356;DHT22;1691;52.486;13.374;2023-02-28T11:20:30;10.60;36.40
3356;DHT22;1691;52.486;13.374;2023-02-28T11:23:01;10.40;36.50
3356;DHT22;1691;52.486;13.374;2023-02-28T11:25:33;10.20;36.90
3356;DHT22;1691;52.486;13.374;2023-02-28T11:28:04;9.90;37.00
3356;DHT22;1691;52.486;13.374;2023-02-28T11:30:36;9.50;37.50
3356;DHT22;1691;52.486;13.374;2023-02-28T11:36:08;8.70;38.20
3356;DHT22;1691;52.486;13.374;2023-02-28T11:38:37;8.40;38.90
3356;DHT22;1691;52.486;13.374;2023-02-28T11:41:12;8.10;38.90
3356;DHT22;1691;52.486;13.374;2023-02-28T11:47:39;7.50;40.10
3356;DHT22;1691;52.486;13.374;2023-02-28T11:50:07;7.30;40.90
3356;DHT22;1691;52.486;13.374;2023-02-28T11:55:54;7.20;41.30
3356;DHT22;1691;52.486;13.374;2023-02-28T11:58:44;7.20;41.60
3356;DHT22;1691;52.486;13.374;2023-02-28T12:10:29;6.90;42.90
3356;DHT22;1691;52.486;13.374;2023-02-28T12:26:45;6.50;44.50
3356;DHT22;1691;52.486;13.374;2023-02-28T12:29:23;6.50;44.90
3356;DHT22;1691;52.486;13.374;2023-02-28T12:31:59;6.50;45.00
3356;DHT22;1691;52.486;13.374;2023-02-28T12:34:38;6.40;45.20
3356;DHT22;1691;52.486;13.374;2023-02-28T12:37:12;6.30;45.50
3356;DHT22;1691;52.486;13.374;2023-02-28T12:39:48;6.30;45.60
3356;DHT22;1691;52.486;13.374;2023-02-28T12:45:12;6.30;45.90
3356;DHT22;1691;52.486;13.374;2023-02-28T12:47:48;6.30;46.10
3356;DHT22;1691;52.486;13.374;2023-02-28T12:50:18;6.30;46.40
3356;DHT22;1691;52.486;13.374;2023-02-28T12:58:47;6.30;46.40
3356;DHT22;1691;52.486;13.374;2023-02-28T13:04:57;6.30;46.70
3356;DHT22;1691;52.486;13.374;2023-02-28T13:10:50;6.40;46.70
3356;DHT22;1691;52.486;13.374;2023-02-28T13:13:26;6.40;46.90
3356;DHT22;1691;52.486;13.374;2023-02-28T13:16:05;6.50;46.70
3356;DHT22;1691;52.486;13.374;2023-02-28T13:21:08;6.50;46.90
3356;DHT22;1691;52.486;13.374;2023-02-28T13:26:08;6.50;46.90
3356;DHT22;1691;52.486;13.374;2023-02-28T13:31:35;6.50;46.90
3356;DHT22;1691;52.486;13.374;2023-02-28T13:38:43;6.50;47.00
3356;DHT22;1691;52.486;13.374;2023-02-28T13:41:45;6.50;47.00
3356;DHT22;1691;52.486;13.374;2023-02-28T13:48:29;6.70;46.90
3356;DHT22;1691;52.486;13.374;2023-02-28T13:59:33;6.90;46.90
3356;DHT22;1691;52.486;13.374;2023-02-28T14:10:37;6.80;46.70
3356;DHT22;1691;52.486;13.374;2023-02-28T14:18:22;6.70;47.00
3356;DHT22;1691;52.486;13.374;2023-02-28T14:21:51;6.70;47.20
3356;DHT22;1691;52.486;13.374;2023-02-28T14:36:48;6.50;47.60
3356;DHT22;1691;52.486;13.374;2023-02-28T14:39:40;6.60;47.90
3356;DHT22;1691;52.486;13.374;2023-02-28T14:50:31;6.80;47.80
3356;DHT22;1691;52.486;13.374;2023-02-28T14:53:49;6.90;47.90
3356;DHT22;1691;52.486;13.374;2023-02-28T14:57:34;6.90;47.80
3356;DHT22;1691;52.486;13.374;2023-02-28T15:00:25;6.80;47.60
3356;DHT22;1691;52.486;13.374;2023-02-28T15:06:35;6.60;47.80
3356;DHT22;1691;52.486;13.374;2023-02-28T15:09:26;6.50;47.60
3356;DHT22;1691;52.486;13.374;2023-02-28T15:12:09;6.40;47.50
3356;DHT22;1691;52.486;13.374;2023-02-28T15:15:01;6.40;47.60
3356;DHT22;1691;52.486;13.374;2023-02-28T15:17:51;6.40;47.60
3356;DHT22;1691;52.486;13.374;2023-02-28T15:20:32;6.30;47.80
3356;DHT22;1691;52.486;13.374;2023-02-28T15:23:11;6.20;47.80
3356;DHT22;1691;52.486;13.374;2023-02-28T15:26:00;6.20;47.80
3356;DHT22;1691;52.486;13.374;2023-02-28T15:28:52;6.10;47.90
3356;DHT22;1691;52.486;13.374;2023-02-28T15:31:45;6.10;47.80
3356;DHT22;1691;52.486;13.374;2023-02-28T15:34:39;6.00;47.90
3356;DHT22;1691;52.486;13.374;2023-02-28T15:40:36;6.00;47.90
3356;DHT22;1691;52.486;13.374;2023-02-28T15:43:29;6.00;48.20
3356;DHT22;1691;52.486;13.374;2023-02-28T15:46:13;5.90;48.40
3356;DHT22;1691;52.486;13.374;2023-02-28T15:49:02;5.90;48.50
3356;DHT22;1691;52.486;13.374;2023-02-28T15:52:21;5.90;48.70
3356;DHT22;1691;52.486;13.374;2023-02-28T15:58:11;5.80;48.70
3356;DHT22;1691;52.486;13.374;2023-02-28T16:04:54;5.70;49.00
3356;DHT22;1691;52.486;13.374;2023-02-28T16:08:22;5.60;49.30
3356;DHT22;1691;52.486;13.374;2023-02-28T16:10:57;5.50;49.60
3356;DHT22;1691;52.486;13.374;2023-02-28T16:13:34;5.50;49.50
3356;DHT22;1691;52.486;13.374;2023-02-28T16:16:23;5.50;49.60
3356;DHT22;1691;52.486;13.374;2023-02-28T16:19:15;5.40;49.90
3356;DHT22;1691;52.486;13.374;2023-02-28T16:22:08;5.40;50.10
3356;DHT22;1691;52.486;13.374;2023-02-28T16:25:21;5.30;50.20
3356;DHT22;1691;52.486;13.374;2023-02-28T16:28:38;5.30;50.40
3356;DHT22;1691;52.486;13.374;2023-02-28T16:32:18;5.20;50.90
3356;DHT22;1691;52.486;13.374;2023-02-28T16:36:06;5.10;51.20
3356;DHT22;1691;52.486;13.374;2023-02-28T16:39:09;5.00;51.50
3356;DHT22;1691;52.486;13.374;2023-02-28T16:41:52;5.00;51.60
3356;DHT22;1691;52.486;13.374;2023-02-28T16:44:46;5.00;51.80
3356;DHT22;1691;52.486;13.374;2023-02-28T16:48:08;4.90;51.90
3356;DHT22;1691;52.486;13.374;2023-02-28T16:55:05;4.80;52.40
3356;DHT22;1691;52.486;13.374;2023-02-28T16:58:45;4.70;52.70
3356;DHT22;1691;52.486;13.374;2023-02-28T17:01:24;4.70;52.90
3356;DHT22;1691;52.486;13.374;2023-02-28T17:04:13;4.60;53.00
3356;DHT22;1691;52.486;13.374;2023-02-28T17:06:52;4.60;53.20
3356;DHT22;1691;52.486;13.374;2023-02-28T17:10:16;4.50;53.20
3356;DHT22;1691;52.486;13.374;2023-02-28T17:13:00;4.50;53.50
3356;DHT22;1691;52.486;13.374;2023-02-28T17:15:48;4.40;53.50
3356;DHT22;1691;52.486;13.374;2023-02-28T17:18:28;4.40;53.60
3356;DHT22;1691;52.486;13.374;2023-02-28T17:21:15;4.40;53.80
3356;DHT22;1691;52.486;13.374;2023-02-28T17:23:55;4.30;53.90
3356;DHT22;1691;52.486;13.374;2023-02-28T17:26:39;4.30;54.20
3356;DHT22;1691;52.486;13.374;2023-02-28T17:29:21;4.30;54.20
3356;DHT22;1691;52.486;13.374;2023-02-28T17:32:17;4.30;54.40
3356;DHT22;1691;52.486;13.374;2023-02-28T17:35:27;4.20;54.50
3356;DHT22;1691;52.486;13.374;2023-02-28T17:38:04;4.20;54.70
3356;DHT22;1691;52.486;13.374;2023-02-28T17:41:28;4.20;54.70
3356;DHT22;1691;52.486;13.374;2023-02-28T17:44:27;4.10;55.00
3356;DHT22;1691;52.486;13.374;2023-02-28T17:47:21;4.10;55.00
3356;DHT22;1691;52.486;13.374;2023-02-28T17:53:44;4.00;55.30
3356;DHT22;1691;52.486;13.374;2023-02-28T17:56:39;4.00;55.50
3356;DHT22;1691;52.486;13.374;2023-02-28T17:59:54;4.00;55.60
3356;DHT22;1691;52.486;13.374;2023-02-28T18:03:03;3.90;55.80
3356;DHT22;1691;52.486;13.374;2023-02-28T18:06:06;3.90;56.10
3356;DHT22;1691;52.486;13.374;2023-02-28T18:08:57;3.90;56.20
3356;DHT22;1691;52.486;13.374;2023-02-28T18:11:31;3.80;56.40
3356;DHT22;1691;52.486;13.374;2023-02-28T18:14:12;3.80;56.50
3356;DHT22;1691;52.486;13.374;2023-02-28T18:16:52;3.70;56.70
3356;DHT22;1691;52.486;13.374;2023-02-28T18:19:39;3.70;56.90
3356;DHT22;1691;52.486;13.374;2023-02-28T18:22:19;3.70;57.00
3356;DHT22;1691;52.486;13.374;2023-02-28T18:24:51;3.70;57.20
3356;DHT22;1691;52.486;13.374;2023-02-28T18:27:21;3.70;57.30
3356;DHT22;1691;52.486;13.374;2023-02-28T18:29:55;3.60;57.50
3356;DHT22;1691;52.486;13.374;2023-02-28T18:32:24;3.60;57.60
3356;DHT22;1691;52.486;13.374;2023-02-28T18:35:05;3.60;58.10
3356;DHT22;1691;52.486;13.374;2023-02-28T18:37:38;3.60;58.20
3356;DHT22;1691;52.486;13.374;2023-02-28T18:40:30;3.60;58.40
3356;DHT22;1691;52.486;13.374;2023-02-28T18:43:12;3.60;58.50
3356;DHT22;1691;52.486;13.374;2023-02-28T18:46:02;3.60;58.70
3356;DHT22;1691;52.486;13.374;2023-02-28T18:48:40;3.50;58.90
3356;DHT22;1691;52.486;13.374;2023-02-28T18:51:38;3.50;59.00
3356;DHT22;1691;52.486;13.374;2023-02-28T18:54:21;3.50;59.00
3356;DHT22;1691;52.486;13.374;2023-02-28T18:58:00;3.50;59.20
3356;DHT22;1691;52.486;13.374;2023-02-28T19:01:33;3.40;59.50
3356;DHT22;1691;52.486;13.374;2023-02-28T19:07:58;3.40;59.80
3356;DHT22;1691;52.486;13.374;2023-02-28T19:11:21;3.40;59.90
3356;DHT22;1691;52.486;13.374;2023-02-28T19:15:10;3.30;60.10
3356;DHT22;1691;52.486;13.374;2023-02-28T19:18:01;3.30;60.50
3356;DHT22;1691;52.486;13.374;2023-02-28T19:26:04;3.30;61.00
3356;DHT22;1691;52.486;13.374;2023-02-28T19:28:32;3.20;61.40
3356;DHT22;1691;52.486;13.374;2023-02-28T19:36:07;3.20;61.80
3356;DHT22;1691;52.486;13.374;2023-02-28T19:38:59;3.10;62.00
3356;DHT22;1691;52.486;13.374;2023-02-28T19:42:17;3.10;62.30
3356;DHT22;1691;52.486;13.374;2023-02-28T19:44:52;3.00;62.50
3356;DHT22;1691;52.486;13.374;2023-02-28T19:47:52;3.00;63.10
3356;DHT22;1691;52.486;13.374;2023-02-28T19:50:59;3.00;63.30
3356;DHT22;1691;52.486;13.374;2023-02-28T19:53:47;3.00;63.40
3356;DHT22;1691;52.486;13.374;2023-02-28T19:59:58;2.90;63.80
3356;DHT22;1691;52.486;13.374;2023-02-28T20:02:39;2.90;64.00
3356;DHT22;1691;52.486;13.374;2023-02-28T20:05:37;2.80;64.20
3356;DHT22;1691;52.486;13.374;2023-02-28T20:09:16;2.80;64.60
3356;DHT22;1691;52.486;13.374;2023-02-28T20:12:19;2.70;64.60
3356;DHT22;1691;52.486;13.374;2023-02-28T20:15:01;2.70;64.70
3356;DHT22;1691;52.486;13.374;2023-02-28T20:17:44;2.60;65.30
3356;DHT22;1691;52.486;13.374;2023-02-28T20:20:38;2.60;65.70
3356;DHT22;1691;52.486;13.374;2023-02-28T20:23:45;2.50;65.90
3356;DHT22;1691;52.486;13.374;2023-02-28T20:26:31;2.50;66.20
3356;DHT22;1691;52.486;13.374;2023-02-28T20:29:22;2.40;66.40